Pilot No 5 — WDC3840 — position and weather

sailwx.info

Track history (hours):
 
Tides and Currents Weather Stations Pressure Air Temp Water Temp Dewpoint Dewpoint Depression Visibility Wind Speed Wind Dir Waves Ship Positions

Pilot No 5

Owner: P E P INC, FT LAUDERDALE, FL. More information available from US FCC via Universal Licensing System and Coast Guard Vessel Documentation Center.

Last reported at 2017-Jan-15 23:10 UTC. Time now 2017-Jan-16 21:43 UTC.
Position N 26°06' W 080°07'.

Length 6 m.

Type: Pilot. MMSI: 367015090.

Date/timePositionNaut miles runAvg speedWind from/ knotsBaromVisibWave heightAir tempDewpointWater temp
2017-Jan-15 23:10N 26°06' W 080°07'2 3.0
2017-Jan-15 22:33N 26°06' W 080°05'0 0.3
2017-Jan-15 21:34N 26°06' W 080°06'2 1.6
2017-Jan-15 20:33N 26°06' W 080°07'2 1.8
2017-Jan-15 19:34N 26°06' W 080°05'1 1.1
2017-Jan-15 18:33N 26°06' W 080°07'1 0.8
2017-Jan-15 17:33N 26°06' W 080°07'1 0.7
2017-Jan-15 16:33N 26°06' W 080°07'2 1.8
2017-Jan-15 15:33N 26°06' W 080°05'2 1.8
2017-Jan-15 14:33N 26°06' W 080°07'3 2.6
2017-Jan-15 13:33N 26°06' W 080°04'3 2.4
2017-Jan-15 12:20N 26°06' W 080°07'2 2.3
2017-Jan-15 11:33N 26°04' W 080°07'1 0.8
2017-Jan-15 10:33N 26°05' W 080°07'4 3.6
2017-Jan-15 09:33N 26°05' W 080°03'0 0.2
2017-Jan-15 08:33N 26°05' W 080°03'4 2.1
2017-Jan-15 06:34N 26°06' W 080°07'0 0.5
2017-Jan-15 05:33N 26°06' W 080°07'0 0.4
2017-Jan-15 04:33N 26°05' W 080°07'1 0.3
2017-Jan-15 02:33N 26°06' W 080°07'1 0.7
2017-Jan-15 01:33N 26°06' W 080°06'1 0.7
2017-Jan-15 00:33N 26°06' W 080°07'0 0.2
2017-Jan-14 23:26N 26°06' W 080°07'1 0.9
2017-Jan-14 22:33N 26°05' W 080°07'1 1.0
2017-Jan-14 21:34N 26°06' W 080°06'1 1.1
2017-Jan-14 20:34N 26°06' W 080°07'0 0.0
2017-Jan-14 11:33N 26°06' W 080°07'5 4.6
2017-Jan-14 10:33N 26°05' W 080°02'5 0.8
2017-Jan-14 04:15N 26°06' W 080°07'3 4.7
2017-Jan-14 03:33N 26°06' W 080°04'3 0.8
2017-Jan-13 23:33N 26°04' W 080°07'2 2.4
2017-Jan-13 22:33N 26°06' W 080°04'2 2.2
2017-Jan-13 21:33N 26°05' W 080°07'1 0.1
2017-Jan-13 15:26N 26°06' W 080°07'0 0.0
2017-Jan-13 13:21N 26°06' W 080°07'2 0.1
2017-Jan-12 20:33N 26°06' W 080°06'1 1.2
2017-Jan-12 19:33N 26°05' W 080°07'1 0.1
2017-Jan-12 11:33N 26°04' W 080°07'2 2.4
2017-Jan-12 10:34N 26°05' W 080°05'1 0.8
2017-Jan-12 09:34N 26°06' W 080°06'1 1.2
2017-Jan-12 08:33N 26°05' W 080°07'0 0.2
2017-Jan-12 07:33N 26°05' W 080°07'1 0.5
2017-Jan-12 06:33N 26°06' W 080°07'1 1.0
2017-Jan-12 05:33N 26°06' W 080°06'1 1.2
2017-Jan-12 04:33N 26°06' W 080°07'1 0.4
2017-Jan-12 03:07N 26°06' W 080°07'1 1.4
2017-Jan-12 02:33N 26°05' W 080°07'0 0.3
2017-Jan-12 01:33N 26°05' W 080°07'1 0.9
2017-Jan-12 00:25N 26°06' W 080°07'1 0.9
2017-Jan-11 23:33N 26°06' W 080°07'1 0.8
2017-Jan-11 22:34N 26°06' W 080°07'0 0.0
2017-Jan-11 19:25N 26°06' W 080°07'0 0.0
2017-Jan-11 18:26N 26°06' W 080°07'0 0.0
2017-Jan-11 17:33N 26°06' W 080°07'0 0.0
2017-Jan-11 16:33N 26°06' W 080°07'0 0.0
2017-Jan-11 15:33N 26°06' W 080°07'1 0.9
2017-Jan-11 14:33N 26°05' W 080°07'1 0.2
2017-Jan-11 10:32N 26°06' W 080°07'2 1.8
2017-Jan-11 09:33N 26°04' W 080°07'2 0.1
2017-Jan-10 19:26N 26°06' W 080°07'2 0.5
2017-Jan-10 15:33N 26°05' W 080°05'2 1.6
2017-Jan-10 14:33N 26°05' W 080°07'2 2.2
2017-Jan-10 13:33N 26°05' W 080°05'2 1.9
2017-Jan-10 12:33N 26°06' W 080°07'1 0.9
2017-Jan-10 11:32N 26°06' W 080°07'1 1.4
2017-Jan-10 10:33N 26°05' W 080°07'1 0.2
2017-Jan-10 04:25N 26°06' W 080°07'3 3.6
2017-Jan-10 03:33N 26°05' W 080°04'3 2.7
2017-Jan-10 02:33N 26°06' W 080°07'1 0.5
2017-Jan-10 01:33N 26°05' W 080°07'1 0.9
2017-Jan-10 00:10N 26°06' W 080°07'1 1.1
2017-Jan-09 23:33N 26°06' W 080°07'1 1.1
2017-Jan-09 22:33N 26°04' W 080°07'2 2.2
2017-Jan-09 21:34N 26°05' W 080°05'2 2.3
2017-Jan-09 20:33N 26°06' W 080°07'0 0.5
2017-Jan-09 19:33N 26°06' W 080°07'2 2.1
2017-Jan-09 18:33N 26°06' W 080°05'2 1.9
2017-Jan-09 17:28N 26°06' W 080°07'1 1.4
2017-Jan-09 16:33N 26°05' W 080°07'1 1.2
2017-Jan-09 15:27N 26°06' W 080°07'0 0.5
2017-Jan-09 14:33N 26°06' W 080°07'2 1.9
2017-Jan-09 13:33N 26°06' W 080°05'2 1.8
2017-Jan-09 12:33N 26°05' W 080°07'0 0.5
2017-Jan-09 11:34N 26°06' W 080°07'1 0.7
2017-Jan-09 10:33N 26°06' W 080°06'1 1.2
2017-Jan-09 09:33N 26°06' W 080°07'0 0.1
2017-Jan-09 05:33N 26°06' W 080°07'0 0.3
2017-Jan-09 04:34N 26°06' W 080°07'0 0.0
2017-Jan-08 23:05N 26°06' W 080°07'2 4.2
2017-Jan-08 22:33N 26°05' W 080°05'2 1.7
2017-Jan-08 21:33N 26°05' W 080°07'1 0.9
2017-Jan-08 20:33N 26°06' W 080°07'1 1.3
2017-Jan-08 19:33N 26°05' W 080°07'1 1.0
2017-Jan-08 18:33N 26°06' W 080°07'0 0.1
2017-Jan-08 14:28N 26°06' W 080°07'2 2.0
2017-Jan-08 13:33N 26°04' W 080°07'1 1.3
2017-Jan-08 12:33N 26°06' W 080°07'0 0.2
2017-Jan-08 11:33N 26°06' W 080°07'4 3.8
2017-Jan-08 10:33N 26°06' W 080°03'2 1.6
2017-Jan-08 09:34N 26°06' W 080°05'2 0.8
2017-Jan-08 06:34N 26°04' W 080°07'0 0.1
2017-Jan-08 05:33N 26°04' W 080°07'1 1.3
2017-Jan-08 04:33N 26°06' W 080°07'1 0.1
2017-Jan-07 20:17N 26°06' W 080°07'1 1.7
2017-Jan-07 19:33N 26°06' W 080°06'4 4.3
2017-Jan-07 18:33N 26°06' W 080°01'5 0.7
2017-Jan-07 11:10N 26°06' W 080°07'2 3.6
2017-Jan-07 10:33N 26°06' W 080°05'0 0.2
2017-Jan-07 09:33N 26°05' W 080°04'3 2.7
2017-Jan-07 08:33N 26°06' W 080°07'0 0.0
2017-Jan-06 11:30N 26°06' W 080°07'5 5.6
2017-Jan-06 10:33N 26°06' W 080°02'3 2.6
2017-Jan-06 09:33N 26°06' W 080°04'3 2.2
2017-Jan-06 08:20N 26°06' W 080°07'2 3.0
2017-Jan-06 07:33N 26°06' W 080°05'2 1.8
2017-Jan-06 06:34N 26°05' W 080°07'1 0.5
2017-Jan-06 05:34N 26°06' W 080°06'1 1.0
2017-Jan-06 04:29N 26°06' W 080°07'1 0.9
2017-Jan-06 03:33N 26°06' W 080°07'0 0.5
2017-Jan-06 02:33N 26°05' W 080°07'1 0.7
2017-Jan-06 01:33N 26°06' W 080°07'1 0.9
2017-Jan-06 00:33N 26°06' W 080°06'0 0.4
2017-Jan-05 23:33N 26°06' W 080°07'  
Track history (hours):
 
Tides and Currents Weather Stations Pressure Air Temp Water Temp Dewpoint Dewpoint Depression Visibility Wind Speed Wind Dir Waves Ship Positions

Pilot No 5

Owner: P E P INC, FT LAUDERDALE, FL. More information available from US FCC via Universal Licensing System and Coast Guard Vessel Documentation Center.

Last reported at 2017-Jan-15 23:10 UTC. Time now 2017-Jan-16 21:43 UTC.
Position N 26°06' W 080°07'.

Length 6 m.

Type: Pilot. MMSI: 367015090.

Date/timePositionNaut miles runAvg speedWind from/ knotsBaromVisibWave heightAir tempDewpointWater temp
2017-Jan-15 23:10N 26°06' W 080°07'2 3.0
2017-Jan-15 22:33N 26°06' W 080°05'0 0.3
2017-Jan-15 21:34N 26°06' W 080°06'2 1.6
2017-Jan-15 20:33N 26°06' W 080°07'2 1.8
2017-Jan-15 19:34N 26°06' W 080°05'1 1.1
2017-Jan-15 18:33N 26°06' W 080°07'1 0.8
2017-Jan-15 17:33N 26°06' W 080°07'1 0.7
2017-Jan-15 16:33N 26°06' W 080°07'2 1.8
2017-Jan-15 15:33N 26°06' W 080°05'2 1.8
2017-Jan-15 14:33N 26°06' W 080°07'3 2.6
2017-Jan-15 13:33N 26°06' W 080°04'3 2.4
2017-Jan-15 12:20N 26°06' W 080°07'2 2.3
2017-Jan-15 11:33N 26°04' W 080°07'1 0.8
2017-Jan-15 10:33N 26°05' W 080°07'4 3.6
2017-Jan-15 09:33N 26°05' W 080°03'0 0.2
2017-Jan-15 08:33N 26°05' W 080°03'4 2.1
2017-Jan-15 06:34N 26°06' W 080°07'0 0.5
2017-Jan-15 05:33N 26°06' W 080°07'0 0.4
2017-Jan-15 04:33N 26°05' W 080°07'1 0.3
2017-Jan-15 02:33N 26°06' W 080°07'1 0.7
2017-Jan-15 01:33N 26°06' W 080°06'1 0.7
2017-Jan-15 00:33N 26°06' W 080°07'0 0.2
2017-Jan-14 23:26N 26°06' W 080°07'1 0.9
2017-Jan-14 22:33N 26°05' W 080°07'1 1.0
2017-Jan-14 21:34N 26°06' W 080°06'1 1.1
2017-Jan-14 20:34N 26°06' W 080°07'0 0.0
2017-Jan-14 11:33N 26°06' W 080°07'5 4.6
2017-Jan-14 10:33N 26°05' W 080°02'5 0.8
2017-Jan-14 04:15N 26°06' W 080°07'3 4.7
2017-Jan-14 03:33N 26°06' W 080°04'3 0.8
2017-Jan-13 23:33N 26°04' W 080°07'2 2.4
2017-Jan-13 22:33N 26°06' W 080°04'2 2.2
2017-Jan-13 21:33N 26°05' W 080°07'1 0.1
2017-Jan-13 15:26N 26°06' W 080°07'0 0.0
2017-Jan-13 13:21N 26°06' W 080°07'2 0.1
2017-Jan-12 20:33N 26°06' W 080°06'1 1.2
2017-Jan-12 19:33N 26°05' W 080°07'1 0.1
2017-Jan-12 11:33N 26°04' W 080°07'2 2.4
2017-Jan-12 10:34N 26°05' W 080°05'1 0.8
2017-Jan-12 09:34N 26°06' W 080°06'1 1.2
2017-Jan-12 08:33N 26°05' W 080°07'0 0.2
2017-Jan-12 07:33N 26°05' W 080°07'1 0.5
2017-Jan-12 06:33N 26°06' W 080°07'1 1.0
2017-Jan-12 05:33N 26°06' W 080°06'1 1.2
2017-Jan-12 04:33N 26°06' W 080°07'1 0.4
2017-Jan-12 03:07N 26°06' W 080°07'1 1.4
2017-Jan-12 02:33N 26°05' W 080°07'0 0.3
2017-Jan-12 01:33N 26°05' W 080°07'1 0.9
2017-Jan-12 00:25N 26°06' W 080°07'1 0.9
2017-Jan-11 23:33N 26°06' W 080°07'1 0.8
2017-Jan-11 22:34N 26°06' W 080°07'0 0.0
2017-Jan-11 19:25N 26°06' W 080°07'0 0.0
2017-Jan-11 18:26N 26°06' W 080°07'0 0.0
2017-Jan-11 17:33N 26°06' W 080°07'0 0.0
2017-Jan-11 16:33N 26°06' W 080°07'0 0.0
2017-Jan-11 15:33N 26°06' W 080°07'1 0.9
2017-Jan-11 14:33N 26°05' W 080°07'1 0.2
2017-Jan-11 10:32N 26°06' W 080°07'2 1.8
2017-Jan-11 09:33N 26°04' W 080°07'2 0.1
2017-Jan-10 19:26N 26°06' W 080°07'2 0.5
2017-Jan-10 15:33N 26°05' W 080°05'2 1.6
2017-Jan-10 14:33N 26°05' W 080°07'2 2.2
2017-Jan-10 13:33N 26°05' W 080°05'2 1.9
2017-Jan-10 12:33N 26°06' W 080°07'1 0.9
2017-Jan-10 11:32N 26°06' W 080°07'1 1.4
2017-Jan-10 10:33N 26°05' W 080°07'1 0.2
2017-Jan-10 04:25N 26°06' W 080°07'3 3.6
2017-Jan-10 03:33N 26°05' W 080°04'3 2.7
2017-Jan-10 02:33N 26°06' W 080°07'1 0.5
2017-Jan-10 01:33N 26°05' W 080°07'1 0.9
2017-Jan-10 00:10N 26°06' W 080°07'1 1.1
2017-Jan-09 23:33N 26°06' W 080°07'1 1.1
2017-Jan-09 22:33N 26°04' W 080°07'2 2.2
2017-Jan-09 21:34N 26°05' W 080°05'2 2.3
2017-Jan-09 20:33N 26°06' W 080°07'0 0.5
2017-Jan-09 19:33N 26°06' W 080°07'2 2.1
2017-Jan-09 18:33N 26°06' W 080°05'2 1.9
2017-Jan-09 17:28N 26°06' W 080°07'1 1.4
2017-Jan-09 16:33N 26°05' W 080°07'1 1.2
2017-Jan-09 15:27N 26°06' W 080°07'0 0.5
2017-Jan-09 14:33N 26°06' W 080°07'2 1.9
2017-Jan-09 13:33N 26°06' W 080°05'2 1.8
2017-Jan-09 12:33N 26°05' W 080°07'0 0.5
2017-Jan-09 11:34N 26°06' W 080°07'1 0.7
2017-Jan-09 10:33N 26°06' W 080°06'1 1.2
2017-Jan-09 09:33N 26°06' W 080°07'0 0.1
2017-Jan-09 05:33N 26°06' W 080°07'0 0.3
2017-Jan-09 04:34N 26°06' W 080°07'0 0.0
2017-Jan-08 23:05N 26°06' W 080°07'2 4.2
2017-Jan-08 22:33N 26°05' W 080°05'2 1.7
2017-Jan-08 21:33N 26°05' W 080°07'1 0.9
2017-Jan-08 20:33N 26°06' W 080°07'1 1.3
2017-Jan-08 19:33N 26°05' W 080°07'1 1.0
2017-Jan-08 18:33N 26°06' W 080°07'0 0.1
2017-Jan-08 14:28N 26°06' W 080°07'2 2.0
2017-Jan-08 13:33N 26°04' W 080°07'1 1.3
2017-Jan-08 12:33N 26°06' W 080°07'0 0.2
2017-Jan-08 11:33N 26°06' W 080°07'4 3.8
2017-Jan-08 10:33N 26°06' W 080°03'2 1.6
2017-Jan-08 09:34N 26°06' W 080°05'2 0.8
2017-Jan-08 06:34N 26°04' W 080°07'0 0.1
2017-Jan-08 05:33N 26°04' W 080°07'1 1.3
2017-Jan-08 04:33N 26°06' W 080°07'1 0.1
2017-Jan-07 20:17N 26°06' W 080°07'1 1.7
2017-Jan-07 19:33N 26°06' W 080°06'4 4.3
2017-Jan-07 18:33N 26°06' W 080°01'5 0.7
2017-Jan-07 11:10N 26°06' W 080°07'2 3.6
2017-Jan-07 10:33N 26°06' W 080°05'0 0.2
2017-Jan-07 09:33N 26°05' W 080°04'3 2.7
2017-Jan-07 08:33N 26°06' W 080°07'0 0.0
2017-Jan-06 11:30N 26°06' W 080°07'5 5.6
2017-Jan-06 10:33N 26°06' W 080°02'3 2.6
2017-Jan-06 09:33N 26°06' W 080°04'3 2.2
2017-Jan-06 08:20N 26°06' W 080°07'2 3.0
2017-Jan-06 07:33N 26°06' W 080°05'2 1.8
2017-Jan-06 06:34N 26°05' W 080°07'1 0.5
2017-Jan-06 05:34N 26°06' W 080°06'1 1.0
2017-Jan-06 04:29N 26°06' W 080°07'1 0.9
2017-Jan-06 03:33N 26°06' W 080°07'0 0.5
2017-Jan-06 02:33N 26°05' W 080°07'1 0.7
2017-Jan-06 01:33N 26°06' W 080°07'1 0.9
2017-Jan-06 00:33N 26°06' W 080°06'0 0.4
2017-Jan-05 23:33N 26°06' W 080°07'  

Dump ship's entire track history